الصفحة الرئيسية
METAR-TAF:

METAR-TAF

مطار :

Midway, الولايات المتحدة

دائرة عرض: 28-13N, خط طول: 177-22W, ارتفاع: 4 متر

METAR: مفقودة

زمن: 02:43 (12:43 UTC)

توقعات

تاريخ ووقت الإصدار 1ساعة و 13 دقيقة قبل الساعة 11:30UTC
التوقعات صالحة من30 الساعة 12 UTC إلى 31 الساعة 12 UTC
ريح 14 عقدة من الشمال الشرقي
الرؤية: 10 كم
غيوم متفرقة على ارتفاع 2000 قدم
غيوم مفككة على ارتفاع 3000 قدم
زخات في الجوار
من 30 الساعة 2100 UTC
ريح 10 عقدة من الشرق
الرؤية: 10 كم
غيوم متفرقة على ارتفاع 2500 قدم
غيوم مفككة على ارتفاع 3500 قدم
زخات في الجوار,

TAF: PMDY 301130Z 3012/3112 04014KT P6SM VCSH SCT020 BKN030 FM302100 08010KT P6SM VCSH SCT025 BKN035 AMD NOT SKED

أرصاد الطقس والتوقعات من أكثر من 4000 مطار (تقارير الطقس للمطار METAR والتنبؤ بالطقس بالمطارTAF).

المحطات المتاحة هي النقط الصفراء والحمراء على الخريطة.

حرك المؤشر فوق النقطة لمعرفة اسم المحطة.

ثم انقر لمعرفة أرصاد وتوقعات الطقس.

لتغيير الخارطة: اضغط على الأزرار الخضراء مع رمز الصليب الأسود للتكبير. على الزر الأخضر مع شرطة للتصغير، أو على الأسهم الخضراء للخرائط المجاورة.


METAR-TAF: